< < Back
Terminal Aerodrome Forecast


Current Version              Previous Versions:   1  2  3  4  5  6  7  8  9  

Terminal Aerodrome Forecast

450
FTUS42 KMLB 020300 AAA
TAFMCO
TAF AMD
KMCO 020335Z 0204/0224 12004KT P6SM BKN100 OVC250
     FM021500 08006KT P6SM SCT020 SCT250
     FM021800 09011KT P6SM VCTS SCT040CB BKN080 BKN250=

Latest METAR

195
SAUS70 KWBC 020600 RRK
MTRMCO
METAR KMCO 020553Z 10003KT 10SM FEW120 OVC250 26/24 A2997 RMK AO2 SLP148
T02610239 10272 20256 58007


USA.gov is the U.S. government's official web portal to all federal, state and local government web resources and services.